sensor_id;sensor_type;location;lat;lon;timestamp;pressure;altitude;pressure_sealevel;temperature;humidity
14067;BME280;7108;42.684;23.350;2023-06-04T00:01:21;95489.06;;;18.23;100.00
14067;BME280;7108;42.684;23.350;2023-06-04T00:03:46;95475.44;;;18.16;100.00
14067;BME280;7108;42.684;23.350;2023-06-04T00:06:12;95501.16;;;18.22;100.00
14067;BME280;7108;42.684;23.350;2023-06-04T00:08:37;95495.69;;;18.25;100.00
14067;BME280;7108;42.684;23.350;2023-06-04T00:11:02;95489.84;;;18.23;100.00
14067;BME280;7108;42.684;23.350;2023-06-04T00:13:28;95501.53;;;18.24;100.00
14067;BME280;7108;42.684;23.350;2023-06-04T00:15:53;95494.50;;;18.26;100.00
14067;BME280;7108;42.684;23.350;2023-06-04T00:18:19;95488.28;;;18.15;100.00
14067;BME280;7108;42.684;23.350;2023-06-04T00:20:44;95492.25;;;18.07;100.00
14067;BME280;7108;42.684;23.350;2023-06-04T00:23:10;95494.22;;;18.07;100.00
14067;BME280;7108;42.684;23.350;2023-06-04T00:25:35;95484.91;;;17.94;100.00
14067;BME280;7108;42.684;23.350;2023-06-04T00:28:01;95489.63;;;17.90;100.00
14067;BME280;7108;42.684;23.350;2023-06-04T00:30:26;95485.00;;;17.83;100.00
14067;BME280;7108;42.684;23.350;2023-06-04T00:32:52;95482.63;;;17.89;100.00
14067;BME280;7108;42.684;23.350;2023-06-04T00:35:17;95481.84;;;17.88;100.00
14067;BME280;7108;42.684;23.350;2023-06-04T00:37:43;95484.94;;;17.90;100.00
14067;BME280;7108;42.684;23.350;2023-06-04T00:40:08;95486.81;;;18.00;100.00
14067;BME280;7108;42.684;23.350;2023-06-04T00:42:34;95491.91;;;18.02;100.00
14067;BME280;7108;42.684;23.350;2023-06-04T00:44:59;95475.56;;;17.98;100.00
14067;BME280;7108;42.684;23.350;2023-06-04T00:47:25;95485.66;;;18.05;100.00
14067;BME280;7108;42.684;23.350;2023-06-04T00:49:53;95486.44;;;18.02;100.00
14067;BME280;7108;42.684;23.350;2023-06-04T00:52:18;95487.22;;;18.02;100.00
14067;BME280;7108;42.684;23.350;2023-06-04T00:54:44;95494.22;;;18.07;100.00
14067;BME280;7108;42.684;23.350;2023-06-04T00:57:09;95483.72;;;18.02;100.00
14067;BME280;7108;42.684;23.350;2023-06-04T00:59:36;95479.44;;;18.01;100.00
14067;BME280;7108;42.684;23.350;2023-06-04T01:02:06;95492.28;;;18.00;100.00
14067;BME280;7108;42.684;23.350;2023-06-04T01:07:29;95494.63;;;18.02;100.00
14067;BME280;7108;42.684;23.350;2023-06-04T01:09:55;95494.63;;;18.02;100.00
14067;BME280;7108;42.684;23.350;2023-06-04T01:12:21;95479.13;;;17.88;100.00
14067;BME280;7108;42.684;23.350;2023-06-04T01:14:46;95483.38;;;17.89;100.00
14067;BME280;7108;42.684;23.350;2023-06-04T01:17:17;95488.47;;;17.87;100.00
14067;BME280;7108;42.684;23.350;2023-06-04T01:25:34;95481.88;;;17.78;100.00
14067;BME280;7108;42.684;23.350;2023-06-04T01:28:02;95477.25;;;17.75;100.00
14067;BME280;7108;42.684;23.350;2023-06-04T01:30:31;95485.00;;;17.76;100.00
14067;BME280;7108;42.684;23.350;2023-06-04T01:32:59;95490.06;;;17.78;100.00
14067;BME280;7108;42.684;23.350;2023-06-04T01:35:26;95493.53;;;17.85;100.00
14067;BME280;7108;42.684;23.350;2023-06-04T01:37:52;95498.63;;;17.83;100.00
14067;BME280;7108;42.684;23.350;2023-06-04T01:40:18;95499.03;;;17.78;100.00
14067;BME280;7108;42.684;23.350;2023-06-04T01:42:43;95504.09;;;17.76;100.00
14067;BME280;7108;42.684;23.350;2023-06-04T01:45:10;95493.28;;;17.56;100.00
14067;BME280;7108;42.684;23.350;2023-06-04T01:47:35;95499.91;;;17.51;100.00
14067;BME280;7108;42.684;23.350;2023-06-04T01:50:02;95506.91;;;17.56;100.00
14067;BME280;7108;42.684;23.350;2023-06-04T01:52:27;95497.97;;;17.52;100.00
14067;BME280;7108;42.684;23.350;2023-06-04T01:54:53;95515.47;;;17.51;100.00
14067;BME280;7108;42.684;23.350;2023-06-04T01:57:19;95513.91;;;17.50;100.00
14067;BME280;7108;42.684;23.350;2023-06-04T01:59:48;95514.28;;;17.59;100.00
14067;BME280;7108;42.684;23.350;2023-06-04T02:02:14;95507.28;;;17.58;100.00
14067;BME280;7108;42.684;23.350;2023-06-04T02:04:40;95504.16;;;17.59;100.00
14067;BME280;7108;42.684;23.350;2023-06-04T02:07:09;95511.94;;;17.68;100.00
14067;BME280;7108;42.684;23.350;2023-06-04T02:09:35;95513.84;;;17.71;100.00
14067;BME280;7108;42.684;23.350;2023-06-04T02:12:01;95499.50;;;17.56;100.00
14067;BME280;7108;42.684;23.350;2023-06-04T02:14:27;95510.44;;;17.46;100.00
14067;BME280;7108;42.684;23.350;2023-06-04T02:16:52;95523.66;;;17.44;100.00
14067;BME280;7108;42.684;23.350;2023-06-04T02:19:19;95510.84;;;17.23;100.00
14067;BME280;7108;42.684;23.350;2023-06-04T02:21:46;95529.91;;;17.34;100.00
14067;BME280;7108;42.684;23.350;2023-06-04T02:24:11;95526.81;;;17.21;100.00
14067;BME280;7108;42.684;23.350;2023-06-04T02:26:37;95522.91;;;17.19;100.00
14067;BME280;7108;42.684;23.350;2023-06-04T02:29:02;95524.84;;;17.22;100.00
14067;BME280;7108;42.684;23.350;2023-06-04T02:31:27;95536.91;;;17.38;100.00
14067;BME280;7108;42.684;23.350;2023-06-04T02:33:53;95537.69;;;17.39;100.00
14067;BME280;7108;42.684;23.350;2023-06-04T02:36:18;95545.47;;;17.44;100.00
14067;BME280;7108;42.684;23.350;2023-06-04T02:38:44;95548.56;;;17.46;100.00
14067;BME280;7108;42.684;23.350;2023-06-04T02:41:09;95545.44;;;17.51;100.00
14067;BME280;7108;42.684;23.350;2023-06-04T02:43:36;95538.03;;;17.51;100.00
14067;BME280;7108;42.684;23.350;2023-06-04T02:46:01;95546.22;;;17.55;100.00
14067;BME280;7108;42.684;23.350;2023-06-04T02:48:27;95561.00;;;17.64;100.00
14067;BME280;7108;42.684;23.350;2023-06-04T02:50:52;95545.03;;;17.56;100.00
14067;BME280;7108;42.684;23.350;2023-06-04T02:53:17;95557.44;;;17.74;100.00
14067;BME280;7108;42.684;23.350;2023-06-04T02:55:43;95568.72;;;17.76;100.00
14067;BME280;7108;42.684;23.350;2023-06-04T02:58:08;95569.91;;;17.78;100.00
14067;BME280;7108;42.684;23.350;2023-06-04T03:00:34;95563.28;;;17.76;100.00
14067;BME280;7108;42.684;23.350;2023-06-04T03:02:59;95569.09;;;17.85;100.00
14067;BME280;7108;42.684;23.350;2023-06-04T03:05:26;95562.50;;;17.75;100.00
14067;BME280;7108;42.684;23.350;2023-06-04T03:07:52;95568.34;;;17.81;100.00
14067;BME280;7108;42.684;23.350;2023-06-04T03:10:18;95573.38;;;17.86;100.00
14067;BME280;7108;42.684;23.350;2023-06-04T03:12:44;95568.69;;;17.86;100.00
14067;BME280;7108;42.684;23.350;2023-06-04T03:15:10;95568.69;;;17.86;100.00
14067;BME280;7108;42.684;23.350;2023-06-04T03:17:36;95566.75;;;17.87;100.00
14067;BME280;7108;42.684;23.350;2023-06-04T03:20:02;95563.25;;;17.86;100.00
14067;BME280;7108;42.684;23.350;2023-06-04T03:22:29;95562.50;;;17.82;100.00
14067;BME280;7108;42.684;23.350;2023-06-04T03:24:55;95560.50;;;17.90;100.00
14067;BME280;7108;42.684;23.350;2023-06-04T03:27:21;95570.63;;;17.89;100.00
14067;BME280;7108;42.684;23.350;2023-06-04T03:29:46;95582.69;;;17.95;100.00
14067;BME280;7108;42.684;23.350;2023-06-04T03:32:13;95570.25;;;17.91;100.00
14067;BME280;7108;42.684;23.350;2023-06-04T03:34:38;95574.53;;;17.88;100.00
14067;BME280;7108;42.684;23.350;2023-06-04T03:37:04;95576.13;;;17.86;100.00
14067;BME280;7108;42.684;23.350;2023-06-04T03:39:29;95588.94;;;17.92;100.00
14067;BME280;7108;42.684;23.350;2023-06-04T03:41:55;95580.00;;;17.85;100.00
14067;BME280;7108;42.684;23.350;2023-06-04T03:44:21;95588.94;;;17.85;100.00
14067;BME280;7108;42.684;23.350;2023-06-04T03:46:47;95597.94;;;17.86;100.00
14067;BME280;7108;42.684;23.350;2023-06-04T03:49:13;95592.88;;;17.77;100.00
14067;BME280;7108;42.684;23.350;2023-06-04T03:51:39;95593.66;;;17.81;100.00
14067;BME280;7108;42.684;23.350;2023-06-04T03:54:05;95597.94;;;17.75;100.00
14067;BME280;7108;42.684;23.350;2023-06-04T03:56:31;95588.19;;;17.74;100.00
14067;BME280;7108;42.684;23.350;2023-06-04T03:58:56;95594.06;;;17.73;100.00
14067;BME280;7108;42.684;23.350;2023-06-04T04:01:22;95600.25;;;17.77;100.00
14067;BME280;7108;42.684;23.350;2023-06-04T04:03:51;95586.69;;;17.63;100.00
14067;BME280;7108;42.684;23.350;2023-06-04T04:06:17;95599.50;;;17.76;100.00
14067;BME280;7108;42.684;23.350;2023-06-04T04:08:43;95605.72;;;17.77;100.00
14067;BME280;7108;42.684;23.350;2023-06-04T04:11:12;95597.19;;;17.75;100.00
14067;BME280;7108;42.684;23.350;2023-06-04T04:13:38;95597.53;;;17.73;100.00
14067;BME280;7108;42.684;23.350;2023-06-04T04:16:03;95615.84;;;17.80;100.00
14067;BME280;7108;42.684;23.350;2023-06-04T04:18:32;95603.41;;;17.69;100.00
14067;BME280;7108;42.684;23.350;2023-06-04T04:20:59;95603.00;;;17.73;100.00
14067;BME280;7108;42.684;23.350;2023-06-04T04:23:24;95602.63;;;17.68;100.00
14067;BME280;7108;42.684;23.350;2023-06-04T04:25:50;95604.19;;;17.66;100.00
14067;BME280;7108;42.684;23.350;2023-06-04T04:28:16;95599.16;;;17.54;100.00
14067;BME280;7108;42.684;23.350;2023-06-04T04:30:43;95597.97;;;17.55;100.00
14067;BME280;7108;42.684;23.350;2023-06-04T04:33:09;95613.94;;;17.56;100.00
14067;BME280;7108;42.684;23.350;2023-06-04T04:35:36;95604.19;;;17.55;100.00
14067;BME280;7108;42.684;23.350;2023-06-04T04:38:02;95619.03;;;17.58;100.00
14067;BME280;7108;42.684;23.350;2023-06-04T04:40:30;95615.91;;;17.56;100.00
14067;BME280;7108;42.684;23.350;2023-06-04T04:42:58;95616.28;;;17.47;100.00
14067;BME280;7108;42.684;23.350;2023-06-04T04:45:23;95603.47;;;17.44;100.00
14067;BME280;7108;42.684;23.350;2023-06-04T04:47:49;95605.00;;;17.45;100.00
14067;BME280;7108;42.684;23.350;2023-06-04T04:50:16;95615.91;;;17.45;100.00
14067;BME280;7108;42.684;23.350;2023-06-04T04:52:42;95608.13;;;17.47;100.00
14067;BME280;7108;42.684;23.350;2023-06-04T04:55:08;95596.06;;;17.38;100.00
14067;BME280;7108;42.684;23.350;2023-06-04T04:57:33;95620.19;;;17.46;100.00
14067;BME280;7108;42.684;23.350;2023-06-04T04:59:59;95595.69;;;17.32;100.00
14067;BME280;7108;42.684;23.350;2023-06-04T05:02:24;95603.47;;;17.34;100.00
14067;BME280;7108;42.684;23.350;2023-06-04T05:04:49;95620.97;;;17.43;100.00
14067;BME280;7108;42.684;23.350;2023-06-04T05:07:15;95598.81;;;17.27;100.00
14067;BME280;7108;42.684;23.350;2023-06-04T05:09:40;95617.47;;;17.36;100.00
14067;BME280;7108;42.684;23.350;2023-06-04T05:12:06;95622.53;;;17.34;100.00
14067;BME280;7108;42.684;23.350;2023-06-04T05:14:32;95622.13;;;17.35;100.00
14067;BME280;7108;42.684;23.350;2023-06-04T05:16:57;95613.16;;;17.24;100.00
14067;BME280;7108;42.684;23.350;2023-06-04T05:19:23;95627.97;;;17.30;100.00
14067;BME280;7108;42.684;23.350;2023-06-04T05:21:49;95633.81;;;17.29;100.00
14067;BME280;7108;42.684;23.350;2023-06-04T05:24:15;95630.31;;;17.35;100.00
14067;BME280;7108;42.684;23.350;2023-06-04T05:26:41;95625.25;;;17.37;100.00
14067;BME280;7108;42.684;23.350;2023-06-04T05:29:07;95629.53;;;17.45;100.00
14067;BME280;7108;42.684;23.350;2023-06-04T05:31:33;95632.28;;;17.42;100.00
14067;BME280;7108;42.684;23.350;2023-06-04T05:34:00;95631.47;;;17.45;100.00
14067;BME280;7108;42.684;23.350;2023-06-04T05:36:31;95633.41;;;17.48;100.00
14067;BME280;7108;42.684;23.350;2023-06-04T05:38:57;95631.88;;;17.47;100.00
14067;BME280;7108;42.684;23.350;2023-06-04T05:41:31;95633.81;;;17.46;100.00
14067;BME280;7108;42.684;23.350;2023-06-04T05:43:57;95613.97;;;17.42;100.00
14067;BME280;7108;42.684;23.350;2023-06-04T05:46:22;95636.13;;;17.55;100.00
14067;BME280;7108;42.684;23.350;2023-06-04T05:48:48;95641.59;;;17.65;100.00
14067;BME280;7108;42.684;23.350;2023-06-04T05:51:14;95638.47;;;17.63;100.00
14067;BME280;7108;42.684;23.350;2023-06-04T05:53:39;95643.13;;;17.73;100.00
14067;BME280;7108;42.684;23.350;2023-06-04T05:56:05;95641.94;;;17.74;100.00
14067;BME280;7108;42.684;23.350;2023-06-04T05:58:33;95644.28;;;17.72;100.00
14067;BME280;7108;42.684;23.350;2023-06-04T06:00:59;95634.16;;;17.69;100.00
14067;BME280;7108;42.684;23.350;2023-06-04T06:03:25;95641.94;;;17.77;100.00
14067;BME280;7108;42.684;23.350;2023-06-04T06:05:52;95642.31;;;17.76;100.00
14067;BME280;7108;42.684;23.350;2023-06-04T06:08:19;95644.69;;;17.77;100.00
14067;BME280;7108;42.684;23.350;2023-06-04T06:10:45;95654.00;;;17.80;100.00
14067;BME280;7108;42.684;23.350;2023-06-04T06:13:10;95658.31;;;17.77;100.00
14067;BME280;7108;42.684;23.350;2023-06-04T06:15:36;95651.28;;;17.70;100.00
14067;BME280;7108;42.684;23.350;2023-06-04T06:18:01;95645.84;;;17.70;100.00
14067;BME280;7108;42.684;23.350;2023-06-04T06:20:27;95658.31;;;17.77;100.00
14067;BME280;7108;42.684;23.350;2023-06-04T06:22:54;95633.41;;;17.65;100.00
14067;BME280;7108;42.684;23.350;2023-06-04T06:25:20;95649.38;;;17.70;100.00
14067;BME280;7108;42.684;23.350;2023-06-04T06:27:45;95651.28;;;17.80;100.00
14067;BME280;7108;42.684;23.350;2023-06-04T06:30:11;95653.22;;;17.83;100.00
14067;BME280;7108;42.684;23.350;2023-06-04T06:32:37;95651.66;;;17.89;100.00
14067;BME280;7108;42.684;23.350;2023-06-04T06:35:03;95643.88;;;17.80;100.00
14067;BME280;7108;42.684;23.350;2023-06-04T06:37:29;95661.75;;;17.95;100.00
14067;BME280;7108;42.684;23.350;2023-06-04T06:39:54;95658.63;;;18.00;100.00
14067;BME280;7108;42.684;23.350;2023-06-04T06:42:20;95648.13;;;17.95;100.00
14067;BME280;7108;42.684;23.350;2023-06-04T06:44:45;95662.91;;;18.01;100.00
14067;BME280;7108;42.684;23.350;2023-06-04T06:47:11;95662.16;;;18.01;100.00
14067;BME280;7108;42.684;23.350;2023-06-04T06:49:42;95659.41;;;18.04;100.00
14067;BME280;7108;42.684;23.350;2023-06-04T06:52:08;95664.06;;;18.07;100.00
14067;BME280;7108;42.684;23.350;2023-06-04T06:54:34;95645.81;;;17.90;100.00
14067;BME280;7108;42.684;23.350;2023-06-04T06:57:00;95657.47;;;17.98;100.00
14067;BME280;7108;42.684;23.350;2023-06-04T06:59:26;95655.13;;;18.00;100.00
14067;BME280;7108;42.684;23.350;2023-06-04T07:01:52;95665.22;;;18.13;100.00
14067;BME280;7108;42.684;23.350;2023-06-04T07:04:17;95671.44;;;18.17;100.00
14067;BME280;7108;42.684;23.350;2023-06-04T07:06:43;95671.06;;;18.19;100.00
14067;BME280;7108;42.684;23.350;2023-06-04T07:09:08;95669.09;;;18.23;100.00
14067;BME280;7108;42.684;23.350;2023-06-04T07:11:34;95673.03;;;18.22;100.00
14067;BME280;7108;42.684;23.350;2023-06-04T07:14:00;95671.88;;;18.19;100.00
14067;BME280;7108;42.684;23.350;2023-06-04T07:16:28;95677.28;;;18.23;100.00
14067;BME280;7108;42.684;23.350;2023-06-04T07:18:54;95691.72;;;18.27;100.00
14067;BME280;7108;42.684;23.350;2023-06-04T07:21:19;95685.47;;;18.30;100.00
14067;BME280;7108;42.684;23.350;2023-06-04T07:23:47;95692.88;;;18.33;100.00
14067;BME280;7108;42.684;23.350;2023-06-04T07:26:15;95681.53;;;18.38;100.00
14067;BME280;7108;42.684;23.350;2023-06-04T07:28:41;95690.09;;;18.40;100.00
14067;BME280;7108;42.684;23.350;2023-06-04T07:31:07;95698.69;;;18.42;100.00
14067;BME280;7108;42.684;23.350;2023-06-04T07:33:33;95697.47;;;18.46;100.00
14067;BME280;7108;42.684;23.350;2023-06-04T07:35:58;95696.28;;;18.50;100.00
14067;BME280;7108;42.684;23.350;2023-06-04T07:38:24;95695.53;;;18.46;100.00
14067;BME280;7108;42.684;23.350;2023-06-04T07:40:50;95706.03;;;18.58;100.00
14067;BME280;7108;42.684;23.350;2023-06-04T07:43:15;95704.47;;;18.57;100.00
14067;BME280;7108;42.684;23.350;2023-06-04T07:45:41;95693.94;;;18.56;100.00
14067;BME280;7108;42.684;23.350;2023-06-04T07:48:09;95692.38;;;18.58;100.00
14067;BME280;7108;42.684;23.350;2023-06-04T07:50:34;95695.13;;;18.55;100.00
14067;BME280;7108;42.684;23.350;2023-06-04T07:53:00;95714.16;;;18.72;100.00
14067;BME280;7108;42.684;23.350;2023-06-04T07:55:25;95718.00;;;18.82;100.00
14067;BME280;7108;42.684;23.350;2023-06-04T07:57:53;95709.75;;;18.89;100.00
14067;BME280;7108;42.684;23.350;2023-06-04T08:00:18;95705.88;;;18.83;100.00
14067;BME280;7108;42.684;23.350;2023-06-04T08:02:45;95714.06;;;18.83;100.00
14067;BME280;7108;42.684;23.350;2023-06-04T08:05:10;95709.41;;;18.87;100.00
14067;BME280;7108;42.684;23.350;2023-06-04T08:07:39;95692.28;;;18.79;100.00
14067;BME280;7108;42.684;23.350;2023-06-04T08:10:05;95709.72;;;18.96;100.00
14067;BME280;7108;42.684;23.350;2023-06-04T08:12:30;95708.91;;;19.02;100.00
14067;BME280;7108;42.684;23.350;2023-06-04T08:14:55;95710.81;;;19.12;100.00
14067;BME280;7108;42.684;23.350;2023-06-04T08:17:22;95711.53;;;19.23;100.00
14067;BME280;7108;42.684;23.350;2023-06-04T08:19:47;95712.25;;;19.34;100.00
14067;BME280;7108;42.684;23.350;2023-06-04T08:22:13;95711.44;;;19.37;100.00
14067;BME280;7108;42.684;23.350;2023-06-04T08:24:39;95706.34;;;19.42;100.00
14067;BME280;7108;42.684;23.350;2023-06-04T08:27:04;95705.91;;;19.47;100.00
14067;BME280;7108;42.684;23.350;2023-06-04T08:29:30;95693.44;;;19.43;100.00
14067;BME280;7108;42.684;23.350;2023-06-04T08:31:55;95696.50;;;19.52;100.00
14067;BME280;7108;42.684;23.350;2023-06-04T08:34:20;95714.81;;;19.58;100.00
14067;BME280;7108;42.684;23.350;2023-06-04T08:36:46;95710.19;;;19.52;100.00
14067;BME280;7108;42.684;23.350;2023-06-04T08:39:12;95702.34;;;19.50;100.00
14067;BME280;7108;42.684;23.350;2023-06-04T08:41:44;95719.91;;;19.53;100.00
14067;BME280;7108;42.684;23.350;2023-06-04T08:44:10;95714.88;;;19.48;100.00
14067;BME280;7108;42.684;23.350;2023-06-04T08:46:39;95708.94;;;19.56;100.00
14067;BME280;7108;42.684;23.350;2023-06-04T08:49:06;95712.84;;;19.55;100.00
14067;BME280;7108;42.684;23.350;2023-06-04T08:51:33;95725.28;;;19.67;100.00
14067;BME280;7108;42.684;23.350;2023-06-04T08:53:59;95714.41;;;19.56;100.00
14067;BME280;7108;42.684;23.350;2023-06-04T08:56:25;95727.25;;;19.63;100.00
14067;BME280;7108;42.684;23.350;2023-06-04T08:58:51;95728.81;;;19.64;100.00
14067;BME280;7108;42.684;23.350;2023-06-04T09:01:18;95721.44;;;19.57;100.00
14067;BME280;7108;42.684;23.350;2023-06-04T09:03:44;95734.63;;;19.73;100.00
14067;BME280;7108;42.684;23.350;2023-06-04T09:06:10;95730.31;;;19.72;100.00
14067;BME280;7108;42.684;23.350;2023-06-04T09:08:38;95736.66;;;19.62;100.00
14067;BME280;7108;42.684;23.350;2023-06-04T09:11:05;95736.97;;;19.71;100.00
14067;BME280;7108;42.684;23.350;2023-06-04T09:13:34;95730.72;;;19.70;100.00
14067;BME280;7108;42.684;23.350;2023-06-04T09:16:01;95730.31;;;19.72;100.00
14067;BME280;7108;42.684;23.350;2023-06-04T09:18:27;95729.59;;;19.68;100.00
14067;BME280;7108;42.684;23.350;2023-06-04T09:21:05;95737.63;;;19.88;100.00
14067;BME280;7108;42.684;23.350;2023-06-04T09:23:34;95734.06;;;19.95;100.00
14067;BME280;7108;42.684;23.350;2023-06-04T09:26:10;95725.00;;;20.01;100.00
14067;BME280;7108;42.684;23.350;2023-06-04T09:28:45;95716.78;;;20.01;100.00
14067;BME280;7108;42.684;23.350;2023-06-04T09:31:15;95721.78;;;20.13;100.00
14067;BME280;7108;42.684;23.350;2023-06-04T09:33:49;95735.38;;;20.20;100.00
14067;BME280;7108;42.684;23.350;2023-06-04T09:36:16;95727.94;;;20.21;100.00
14067;BME280;7108;42.684;23.350;2023-06-04T09:38:42;95726.78;;;20.22;100.00
14067;BME280;7108;42.684;23.350;2023-06-04T09:41:15;95725.22;;;20.21;100.00
14067;BME280;7108;42.684;23.350;2023-06-04T09:43:41;95727.53;;;20.22;100.00
14067;BME280;7108;42.684;23.350;2023-06-04T09:46:13;95730.25;;;20.26;100.00
14067;BME280;7108;42.684;23.350;2023-06-04T09:48:40;95726.31;;;20.27;100.00
14067;BME280;7108;42.684;23.350;2023-06-04T09:51:10;95712.28;;;20.21;100.00
14067;BME280;7108;42.684;23.350;2023-06-04T09:53:36;95727.09;;;20.27;100.00
14067;BME280;7108;42.684;23.350;2023-06-04T09:56:03;95719.63;;;20.31;100.00
14067;BME280;7108;42.684;23.350;2023-06-04T09:58:37;95708.34;;;20.26;100.00
14067;BME280;7108;42.684;23.350;2023-06-04T10:01:05;95714.13;;;20.31;100.00
14067;BME280;7108;42.684;23.350;2023-06-04T10:03:34;95721.84;;;20.43;100.00
14067;BME280;7108;42.684;23.350;2023-06-04T10:06:05;95718.19;;;20.53;100.00
14067;BME280;7108;42.684;23.350;2023-06-04T10:08:33;95718.16;;;20.56;100.00
14067;BME280;7108;42.684;23.350;2023-06-04T10:11:03;95717.28;;;20.63;100.00
14067;BME280;7108;42.684;23.350;2023-06-04T10:13:30;95709.34;;;20.72;100.00
14067;BME280;7108;42.684;23.350;2023-06-04T10:15:58;95702.69;;;20.76;100.00
14067;BME280;7108;42.684;23.350;2023-06-04T10:18:24;95722.31;;;21.01;100.00
14067;BME280;7108;42.684;23.350;2023-06-04T10:20:53;95702.63;;;21.09;100.00
14067;BME280;7108;42.684;23.350;2023-06-04T10:23:20;95700.00;;;21.29;100.00
14067;BME280;7108;42.684;23.350;2023-06-04T10:25:49;95699.84;;;21.39;100.00
14067;BME280;7108;42.684;23.350;2023-06-04T10:28:18;95676.66;;;21.44;100.00
14067;BME280;7108;42.684;23.350;2023-06-04T10:30:45;95691.13;;;21.44;100.00
14067;BME280;7108;42.684;23.350;2023-06-04T10:33:11;95681.66;;;21.52;100.00
14067;BME280;7108;42.684;23.350;2023-06-04T10:35:36;95704.44;;;21.72;100.00
14067;BME280;7108;42.684;23.350;2023-06-04T10:40:35;95706.72;;;21.51;100.00
14067;BME280;7108;42.684;23.350;2023-06-04T10:43:10;95702.84;;;21.48;100.00
14067;BME280;7108;42.684;23.350;2023-06-04T10:45:37;95695.31;;;21.56;100.00
14067;BME280;7108;42.684;23.350;2023-06-04T10:48:04;95703.16;;;21.54;100.00
14067;BME280;7108;42.684;23.350;2023-06-04T10:50:32;95707.53;;;21.48;100.00
14067;BME280;7108;42.684;23.350;2023-06-04T10:52:59;95697.09;;;21.39;100.00
14067;BME280;7108;42.684;23.350;2023-06-04T10:55:28;95669.59;;;21.20;100.00
14067;BME280;7108;42.684;23.350;2023-06-04T10:57:54;95673.47;;;21.22;100.00
14067;BME280;7108;42.684;23.350;2023-06-04T11:00:21;95680.81;;;21.29;100.00
14067;BME280;7108;42.684;23.350;2023-06-04T11:02:56;95686.59;;;21.34;100.00
14067;BME280;7108;42.684;23.350;2023-06-04T11:05:22;95689.81;;;21.29;100.00
14067;BME280;7108;42.684;23.350;2023-06-04T11:07:49;95683.34;;;21.16;100.00
14067;BME280;7108;42.684;23.350;2023-06-04T11:10:16;95691.09;;;21.21;100.00
14067;BME280;7108;42.684;23.350;2023-06-04T11:12:49;95691.91;;;21.18;100.00
14067;BME280;7108;42.684;23.350;2023-06-04T11:15:17;95672.13;;;21.08;100.00
14067;BME280;7108;42.684;23.350;2023-06-04T11:17:53;95685.72;;;21.14;100.00
14067;BME280;7108;42.684;23.350;2023-06-04T11:20:20;95684.16;;;21.13;100.00
14067;BME280;7108;42.684;23.350;2023-06-04T11:22:56;95683.81;;;21.11;100.00
14067;BME280;7108;42.684;23.350;2023-06-04T11:25:24;95682.00;;;21.02;100.00
14067;BME280;7108;42.684;23.350;2023-06-04T11:27:52;95695.13;;;21.13;100.00
14067;BME280;7108;42.684;23.350;2023-06-04T11:30:19;95693.69;;;21.06;100.00
14067;BME280;7108;42.684;23.350;2023-06-04T11:32:45;95692.09;;;21.08;100.00
14067;BME280;7108;42.684;23.350;2023-06-04T11:35:11;95673.03;;;20.98;100.00
14067;BME280;7108;42.684;23.350;2023-06-04T11:37:37;95686.59;;;21.08;100.00
14067;BME280;7108;42.684;23.350;2023-06-04T11:40:03;95685.09;;;21.04;100.00
14067;BME280;7108;42.684;23.350;2023-06-04T11:42:32;95680.03;;;21.02;100.00
14067;BME280;7108;42.684;23.350;2023-06-04T11:44:58;95690.91;;;21.09;100.00
14067;BME280;7108;42.684;23.350;2023-06-04T11:47:24;95689.84;;;21.00;100.00
14067;BME280;7108;42.684;23.350;2023-06-04T11:49:54;95701.66;;;20.97;100.00
14067;BME280;7108;42.684;23.350;2023-06-04T11:52:21;95695.88;;;20.88;100.00
14067;BME280;7108;42.684;23.350;2023-06-04T11:54:46;95690.56;;;20.77;100.00
14067;BME280;7108;42.684;23.350;2023-06-04T11:57:12;95698.31;;;20.82;100.00
14067;BME280;7108;42.684;23.350;2023-06-04T11:59:38;95693.25;;;20.81;100.00
14067;BME280;7108;42.684;23.350;2023-06-04T12:02:04;95682.38;;;20.70;100.00
14067;BME280;7108;42.684;23.350;2023-06-04T12:04:31;95700.78;;;20.70;100.00
14067;BME280;7108;42.684;23.350;2023-06-04T12:07:02;95696.19;;;20.63;100.00
14067;BME280;7108;42.684;23.350;2023-06-04T12:09:32;95710.56;;;20.71;100.00
14067;BME280;7108;42.684;23.350;2023-06-04T12:12:07;95707.41;;;20.72;100.00
14067;BME280;7108;42.684;23.350;2023-06-04T12:14:33;95702.34;;;20.71;100.00
14067;BME280;7108;42.684;23.350;2023-06-04T12:17:17;95698.84;;;20.67;100.00
14067;BME280;7108;42.684;23.350;2023-06-04T12:19:47;95707.03;;;20.70;100.00
14067;BME280;7108;42.684;23.350;2023-06-04T12:22:16;95707.13;;;20.63;100.00
14067;BME280;7108;42.684;23.350;2023-06-04T12:27:20;95707.47;;;20.65;100.00
14067;BME280;7108;42.684;23.350;2023-06-04T12:30:00;95714.53;;;20.66;100.00
14067;BME280;7108;42.684;23.350;2023-06-04T12:32:26;95706.44;;;20.56;100.00
14067;BME280;7108;42.684;23.350;2023-06-04T12:34:52;95716.94;;;20.61;100.00
14067;BME280;7108;42.684;23.350;2023-06-04T12:37:18;95714.25;;;20.57;100.00
14067;BME280;7108;42.684;23.350;2023-06-04T12:39:43;95687.44;;;20.42;100.00
14067;BME280;7108;42.684;23.350;2023-06-04T12:42:09;95709.25;;;20.49;100.00
14067;BME280;7108;42.684;23.350;2023-06-04T12:44:39;95702.34;;;20.38;100.00
14067;BME280;7108;42.684;23.350;2023-06-04T12:47:05;95709.28;;;20.45;100.00
14067;BME280;7108;42.684;23.350;2023-06-04T12:49:31;95686.38;;;20.33;100.00
14067;BME280;7108;42.684;23.350;2023-06-04T12:51:56;95706.13;;;20.47;100.00
14067;BME280;7108;42.684;23.350;2023-06-04T12:54:22;95703.81;;;20.45;100.00
14067;BME280;7108;42.684;23.350;2023-06-04T12:56:48;95705.34;;;20.50;100.00
14067;BME280;7108;42.684;23.350;2023-06-04T12:59:13;95705.78;;;20.45;100.00
14067;BME280;7108;42.684;23.350;2023-06-04T13:01:39;95699.16;;;20.42;100.00